createdAt,value
2022-07-28T00:01:12.420Z,99812.63
2022-07-28T00:03:40.309Z,99750.97
2022-07-28T00:06:06.952Z,99816.56
2022-07-28T00:08:33.581Z,99805.47
2022-07-28T00:11:00.252Z,99794.31
2022-07-28T00:13:26.944Z,99811.69
2022-07-28T00:15:53.612Z,99808.75
2022-07-28T00:18:20.300Z,99802.56
2022-07-28T00:20:46.972Z,99794.38
2022-07-28T00:23:13.595Z,99793.84
2022-07-28T00:25:40.226Z,99800.84
2022-07-28T00:28:07.220Z,99779.16
2022-07-28T00:30:33.865Z,99763.63
2022-07-28T00:33:00.655Z,99630.84
2022-07-28T00:35:30.961Z,99782.38
2022-07-28T00:37:59.578Z,99777.34
2022-07-28T00:40:46.981Z,99757.66
2022-07-28T00:43:14.216Z,99788.28
2022-07-28T00:45:41.005Z,99793.91
2022-07-28T00:48:07.675Z,99756.16
2022-07-28T00:50:34.419Z,99777.81
2022-07-28T00:53:01.247Z,99786.00
2022-07-28T00:55:27.992Z,99784.59
2022-07-28T00:57:54.748Z,99784.00
2022-07-28T01:00:21.584Z,99782.06
2022-07-28T01:02:48.642Z,99779.47
2022-07-28T01:05:15.964Z,99764.78
2022-07-28T01:08:03.661Z,99779.16
2022-07-28T01:10:56.150Z,99777.00
2022-07-28T01:13:45.236Z,99758.75
2022-07-28T01:16:12.310Z,99762.00
2022-07-28T01:18:48.025Z,99766.13
2022-07-28T01:21:19.963Z,99777.91
2022-07-28T01:23:58.755Z,99775.09
2022-07-28T01:26:38.743Z,99778.22
2022-07-28T01:29:30.000Z,99768.72
2022-07-28T01:32:03.802Z,99772.13
2022-07-28T01:34:49.029Z,99765.44
2022-07-28T01:37:19.860Z,99764.56
2022-07-28T01:39:47.472Z,99769.00
2022-07-28T01:42:15.669Z,99744.44
2022-07-28T01:44:47.555Z,99762.78
2022-07-28T01:47:15.345Z,99748.41
2022-07-28T01:49:45.071Z,99762.53
2022-07-28T01:52:11.727Z,99754.94
2022-07-28T01:54:41.929Z,99744.84
2022-07-28T01:57:14.428Z,99760.09
2022-07-28T01:59:42.755Z,99740.75
2022-07-28T02:02:11.156Z,99756.63
2022-07-28T02:04:40.555Z,99719.63
2022-07-28T02:07:10.311Z,99710.75
2022-07-28T02:09:38.080Z,99749.38
2022-07-28T02:12:05.980Z,99712.31
2022-07-28T02:14:36.285Z,99727.25
2022-07-28T02:17:08.415Z,99702.66
2022-07-28T02:19:36.936Z,99736.13
2022-07-28T02:22:06.194Z,99715.00
2022-07-28T02:24:34.854Z,99745.66
2022-07-28T02:27:10.036Z,99749.66
2022-07-28T02:29:51.282Z,99744.28
2022-07-28T02:32:52.369Z,99737.38
2022-07-28T02:35:40.496Z,99720.13
2022-07-28T02:38:17.724Z,99721.88
2022-07-28T02:40:46.454Z,99724.19
2022-07-28T02:43:17.960Z,99714.06
2022-07-28T02:45:51.730Z,99716.63
2022-07-28T02:48:23.349Z,99709.41
2022-07-28T02:50:52.982Z,99698.09
2022-07-28T02:53:22.389Z,99701.00
2022-07-28T02:55:50.231Z,99693.56
2022-07-28T02:58:22.405Z,99708.25
2022-07-28T03:00:50.680Z,99715.25
2022-07-28T03:03:18.504Z,99711.88
2022-07-28T03:05:46.236Z,99722.84
2022-07-28T03:08:14.116Z,99690.53
2022-07-28T03:10:41.835Z,99724.94
2022-07-28T03:13:08.702Z,99733.00
2022-07-28T03:15:36.953Z,99727.50
2022-07-28T03:18:05.540Z,99707.69
2022-07-28T03:20:32.502Z,99711.06
2022-07-28T03:22:59.472Z,99723.44
2022-07-28T03:25:41.301Z,99729.53
2022-07-28T03:28:13.031Z,99720.66
2022-07-28T03:30:42.933Z,99723.34
2022-07-28T03:33:09.955Z,99724.84
2022-07-28T03:35:39.754Z,99710.16
2022-07-28T03:38:14.524Z,99701.19
2022-07-28T03:40:46.553Z,99724.50
2022-07-28T03:43:16.463Z,99703.63
2022-07-28T03:45:46.454Z,99720.91
2022-07-28T03:48:14.890Z,99729.63
2022-07-28T03:50:41.731Z,99732.91
2022-07-28T03:53:35.173Z,99723.22
2022-07-28T03:56:03.299Z,99734.75
2022-07-28T03:58:30.776Z,99718.09
2022-07-28T04:00:58.218Z,99736.50
2022-07-28T04:03:42.637Z,99733.03
2022-07-28T04:06:10.840Z,99727.06
2022-07-28T04:08:37.639Z,99702.69
2022-07-28T04:11:04.272Z,99725.22
2022-07-28T04:13:36.489Z,99729.47
2022-07-28T04:16:03.520Z,99736.38
2022-07-28T04:18:30.214Z,99692.28
2022-07-28T04:20:56.923Z,99734.53
2022-07-28T04:23:24.187Z,99720.91
2022-07-28T04:25:50.908Z,99712.63
2022-07-28T04:28:17.618Z,99714.81
2022-07-28T04:30:44.883Z,99728.81
2022-07-28T04:33:13.860Z,99731.63
2022-07-28T04:35:42.857Z,99726.72
2022-07-28T04:38:09.537Z,99715.75
2022-07-28T04:40:36.225Z,99738.63
2022-07-28T04:43:03.881Z,99728.09
2022-07-28T04:45:30.834Z,99698.47
2022-07-28T04:47:57.524Z,99718.78
2022-07-28T04:50:24.250Z,99679.50
2022-07-28T04:52:58.697Z,99735.09
2022-07-28T04:55:26.065Z,99723.22
2022-07-28T04:57:52.738Z,99705.94
2022-07-28T05:00:19.973Z,99726.72
2022-07-28T05:02:50.038Z,99725.44
2022-07-28T05:05:16.942Z,99731.38
2022-07-28T05:07:44.185Z,99726.94
2022-07-28T05:10:12.391Z,99737.41
2022-07-28T05:12:39.466Z,99733.09
2022-07-28T05:15:07.417Z,99732.44
2022-07-28T05:17:34.350Z,99736.03
2022-07-28T05:20:01.038Z,99694.19
2022-07-28T05:22:47.647Z,99694.66
2022-07-28T05:25:18.700Z,99740.31
2022-07-28T05:27:46.542Z,99745.78
2022-07-28T05:30:14.322Z,99726.44
2022-07-28T05:32:41.673Z,99741.84
2022-07-28T05:35:12.399Z,99697.28
2022-07-28T05:37:39.055Z,99716.75
2022-07-28T05:40:11.837Z,99742.19
2022-07-28T05:42:39.921Z,99746.28
2022-07-28T05:45:15.013Z,99743.81
2022-07-28T05:47:46.348Z,99742.94
2022-07-28T05:50:14.990Z,99748.09
2022-07-28T05:52:41.824Z,99749.25
2022-07-28T05:55:09.806Z,99752.41
2022-07-28T05:57:37.569Z,99721.44
2022-07-28T06:00:09.514Z,99754.50
2022-07-28T06:02:40.230Z,99723.03
2022-07-28T06:05:07.815Z,99741.47
2022-07-28T06:07:43.259Z,99753.28
2022-07-28T06:10:16.765Z,99759.72
2022-07-28T06:12:46.795Z,99756.28
2022-07-28T06:15:15.305Z,99760.91
2022-07-28T06:17:42.345Z,99743.72
2022-07-28T06:20:10.244Z,99724.22
2022-07-28T06:22:47.773Z,99743.28
2022-07-28T06:25:16.773Z,99750.47
2022-07-28T06:27:45.710Z,99746.00
2022-07-28T06:30:12.911Z,99740.34
2022-07-28T06:32:39.748Z,99740.06
2022-07-28T06:35:07.044Z,99732.88
2022-07-28T06:37:33.754Z,99726.69
2022-07-28T06:40:00.518Z,99730.19
2022-07-28T06:42:27.480Z,99737.56
2022-07-28T06:45:01.291Z,99734.94
2022-07-28T06:47:27.949Z,99731.69
2022-07-28T06:49:54.591Z,99724.31
2022-07-28T06:52:22.072Z,99728.50
2022-07-28T06:54:51.611Z,99734.97
2022-07-28T06:57:21.118Z,99745.00
2022-07-28T06:59:49.567Z,99740.72
2022-07-28T07:02:17.628Z,99727.09
2022-07-28T07:04:45.442Z,99723.91
2022-07-28T07:07:17.122Z,99715.97
2022-07-28T07:09:44.418Z,99734.03
2022-07-28T07:12:11.127Z,99728.69
2022-07-28T07:14:37.886Z,99730.47
2022-07-28T07:17:04.580Z,99715.13
2022-07-28T07:19:31.318Z,99739.03
2022-07-28T07:21:58.004Z,99729.19
2022-07-28T07:24:24.762Z,99724.53
2022-07-28T07:26:51.780Z,99725.94
2022-07-28T07:29:19.801Z,99709.06
2022-07-28T07:31:46.627Z,99686.94
2022-07-28T07:34:19.507Z,99719.00
2022-07-28T07:36:46.305Z,99719.00
2022-07-28T07:39:13.458Z,99722.81
2022-07-28T07:41:40.158Z,99688.47
2022-07-28T07:44:07.210Z,99718.47
2022-07-28T07:46:36.263Z,99711.97
2022-07-28T07:49:03.084Z,99710.66
2022-07-28T07:51:29.780Z,99692.28
2022-07-28T07:53:56.525Z,99691.16
2022-07-28T07:56:23.217Z,99710.28
2022-07-28T07:58:56.456Z,99693.53
2022-07-28T08:01:23.616Z,99706.81
2022-07-28T08:03:50.680Z,99700.50
2022-07-28T08:06:17.876Z,99684.19
2022-07-28T08:08:59.444Z,99708.59
2022-07-28T08:11:26.210Z,99703.31
2022-07-28T08:13:52.966Z,99711.94
2022-07-28T08:16:19.918Z,99679.44
2022-07-28T08:18:46.651Z,99688.41
2022-07-28T08:21:14.617Z,99703.44
2022-07-28T08:23:41.467Z,99658.91
2022-07-28T08:26:08.256Z,99699.69
2022-07-28T08:28:35.174Z,99690.00
2022-07-28T08:31:02.103Z,99682.19
2022-07-28T08:33:28.914Z,99692.44
2022-07-28T08:35:55.609Z,99671.81
2022-07-28T08:38:22.320Z,99682.00
2022-07-28T08:40:50.155Z,99690.31
2022-07-28T08:43:33.548Z,99685.69
2022-07-28T08:46:02.241Z,99675.38
2022-07-28T08:48:36.955Z,99675.59
2022-07-28T08:51:09.387Z,99689.47
2022-07-28T08:53:38.142Z,99676.13
2022-07-28T08:56:07.522Z,99654.75
2022-07-28T08:58:35.984Z,99666.38
2022-07-28T09:01:03.792Z,99660.91
2022-07-28T09:03:30.612Z,99679.91
2022-07-28T09:05:57.923Z,99663.63
2022-07-28T09:08:25.347Z,99663.63
2022-07-28T09:10:52.730Z,99664.34
2022-07-28T09:13:19.705Z,99659.06
2022-07-28T09:15:46.880Z,99663.81
2022-07-28T09:18:14.980Z,99652.84
2022-07-28T09:20:44.027Z,99666.25
2022-07-28T09:23:41.938Z,99658.34
2022-07-28T09:26:12.365Z,99653.63
2022-07-28T09:28:51.619Z,99651.41
2022-07-28T09:31:19.567Z,99642.84
2022-07-28T09:34:00.998Z,99650.38
2022-07-28T09:36:30.017Z,99640.19
2022-07-28T09:38:56.912Z,99641.50
2022-07-28T09:41:24.225Z,99621.03
2022-07-28T09:43:55.247Z,99642.78
2022-07-28T09:46:25.678Z,99624.91
2022-07-28T09:48:58.110Z,99633.16
2022-07-28T09:51:28.073Z,99628.09
2022-07-28T09:54:13.295Z,99630.84
2022-07-28T09:56:45.665Z,99622.72
2022-07-28T09:59:15.094Z,99629.81
2022-07-28T10:01:54.020Z,99616.75
2022-07-28T10:04:41.276Z,99581.47
2022-07-28T10:07:11.335Z,99623.53
2022-07-28T10:09:39.169Z,99608.00
2022-07-28T10:12:17.886Z,99605.19
2022-07-28T10:14:46.345Z,99608.28
2022-07-28T10:17:27.778Z,99606.16
2022-07-28T10:19:58.338Z,99598.50
2022-07-28T10:22:32.963Z,99590.31
2022-07-28T10:25:02.528Z,99595.06
2022-07-28T10:27:30.317Z,99588.22
2022-07-28T10:30:00.143Z,99581.22
2022-07-28T10:32:29.615Z,99579.91
2022-07-28T10:35:02.722Z,99584.16
2022-07-28T10:37:32.068Z,99582.47
2022-07-28T10:40:09.805Z,99575.41
2022-07-28T10:42:40.215Z,99580.13
2022-07-28T10:45:10.060Z,99573.81
2022-07-28T10:47:36.820Z,99554.38
2022-07-28T10:50:04.289Z,99566.47
2022-07-28T10:52:51.315Z,99565.25
2022-07-28T10:55:46.455Z,99573.03
2022-07-28T10:58:24.999Z,99565.28
2022-07-28T11:01:02.170Z,99574.22
2022-07-28T11:03:40.449Z,99568.22
2022-07-28T11:06:36.970Z,99568.47
2022-07-28T11:09:15.770Z,99561.13
2022-07-28T11:11:57.828Z,99552.88
2022-07-28T11:14:37.598Z,99553.91
2022-07-28T11:17:04.659Z,99547.88
2022-07-28T11:19:55.726Z,99540.41
2022-07-28T11:22:32.858Z,99540.72
2022-07-28T11:25:18.486Z,99545.38
2022-07-28T11:27:49.709Z,99539.78
2022-07-28T11:30:16.362Z,99542.59
2022-07-28T11:32:53.394Z,99535.94
2022-07-28T11:35:24.411Z,99531.16
2022-07-28T11:38:03.182Z,99541.47
2022-07-28T11:40:38.239Z,99532.28
2022-07-28T11:43:30.636Z,99537.44
2022-07-28T11:46:07.642Z,99533.09
2022-07-28T11:48:42.871Z,99488.41
2022-07-28T11:51:15.918Z,99533.94
2022-07-28T11:53:50.740Z,99523.88
2022-07-28T11:56:36.075Z,99480.16
2022-07-28T11:59:04.723Z,99516.88
2022-07-28T12:01:32.531Z,99525.13
2022-07-28T12:04:12.256Z,99512.16
2022-07-28T12:06:43.079Z,99510.84
2022-07-28T12:09:11.301Z,99506.09
2022-07-28T12:11:42.314Z,99505.63
2022-07-28T12:14:18.485Z,99512.88
2022-07-28T12:16:49.648Z,99499.38
2022-07-28T12:19:19.007Z,99502.03
2022-07-28T12:21:50.495Z,99509.06
2022-07-28T12:24:20.268Z,99499.31
2022-07-28T12:26:49.983Z,99476.94
2022-07-28T12:29:19.870Z,99493.84
2022-07-28T12:32:02.693Z,99487.59
2022-07-28T12:34:31.302Z,99495.84
2022-07-28T12:37:01.930Z,99485.59
2022-07-28T12:39:30.873Z,99430.63
2022-07-28T12:42:05.702Z,99487.00
2022-07-28T12:44:40.440Z,99467.28
2022-07-28T12:47:10.805Z,99485.34
2022-07-28T12:49:40.597Z,99486.69
2022-07-28T12:52:21.609Z,99483.00
2022-07-28T12:54:53.357Z,99471.78
2022-07-28T12:57:50.509Z,99478.63
2022-07-28T13:00:20.613Z,99476.88
2022-07-28T13:02:48.950Z,99455.22
2022-07-28T13:05:27.500Z,99476.50
2022-07-28T13:08:02.460Z,99476.03
2022-07-28T13:10:30.223Z,99470.41
2022-07-28T13:13:06.431Z,99474.66
2022-07-28T13:15:36.172Z,99484.03
2022-07-28T13:18:04.885Z,99456.94
2022-07-28T13:20:36.588Z,99471.38
2022-07-28T13:23:03.237Z,99468.47
2022-07-28T13:25:30.029Z,99477.22
2022-07-28T13:27:56.702Z,99451.41
2022-07-28T13:30:23.878Z,99457.78
2022-07-28T13:32:50.892Z,99463.44
2022-07-28T13:35:19.099Z,99424.47
2022-07-28T13:37:48.378Z,99428.81
2022-07-28T13:40:15.171Z,99438.13
2022-07-28T13:42:52.982Z,99440.75
2022-07-28T13:45:24.366Z,99436.91
2022-07-28T13:47:52.202Z,99425.34
2022-07-28T13:50:20.590Z,99430.50
2022-07-28T13:52:48.361Z,99431.31
2022-07-28T13:55:15.972Z,99439.38
2022-07-28T13:57:45.919Z,99418.44
2022-07-28T14:00:18.110Z,99428.47
2022-07-28T14:02:48.628Z,99428.50
2022-07-28T14:05:15.956Z,99430.44
2022-07-28T14:07:48.030Z,99421.00
2022-07-28T14:10:17.787Z,99425.41
2022-07-28T14:12:44.935Z,99436.38
2022-07-28T14:15:12.946Z,99407.13
2022-07-28T14:17:45.700Z,99425.63
2022-07-28T14:20:16.363Z,99420.81
2022-07-28T14:22:44.617Z,99423.56
2022-07-28T14:25:19.786Z,99429.00
2022-07-28T14:27:49.028Z,99405.97
2022-07-28T14:30:15.688Z,99409.00
2022-07-28T14:32:42.486Z,99408.31
2022-07-28T14:35:09.444Z,99318.84
2022-07-28T14:38:11.294Z,99389.44
2022-07-28T14:40:23.722Z,99405.75
2022-07-28T14:42:50.365Z,99394.88
2022-07-28T14:45:17.067Z,99391.66
2022-07-28T14:47:44.967Z,99362.66
2022-07-28T14:50:12.601Z,99378.94
2022-07-28T14:52:39.328Z,99389.34
2022-07-28T14:55:06.617Z,99382.97
2022-07-28T14:57:50.117Z,99370.16
2022-07-28T15:00:21.599Z,99399.34
2022-07-28T15:02:48.451Z,99395.97
2022-07-28T15:05:15.236Z,99402.19
2022-07-28T15:07:42.396Z,99380.47
2022-07-28T15:10:10.462Z,99397.00
2022-07-28T15:12:37.712Z,99398.81
2022-07-28T15:15:05.328Z,99402.84
2022-07-28T15:17:32.065Z,99385.63
2022-07-28T15:19:59.909Z,99410.53
2022-07-28T15:22:26.778Z,99403.06
2022-07-28T15:24:53.542Z,99384.69
2022-07-28T15:27:20.322Z,99409.66
2022-07-28T15:29:48.028Z,99399.47
2022-07-28T15:32:19.597Z,99404.78
2022-07-28T15:34:53.860Z,99382.56
2022-07-28T15:37:20.566Z,99391.53
2022-07-28T15:39:47.651Z,99357.75
2022-07-28T15:42:14.846Z,99387.41
2022-07-28T15:44:41.623Z,99364.81
2022-07-28T15:47:08.415Z,99381.41
2022-07-28T15:49:36.145Z,99349.63
2022-07-28T15:52:04.334Z,99383.75
2022-07-28T15:54:31.198Z,99368.94
2022-07-28T15:56:57.980Z,99367.09
2022-07-28T15:59:25.421Z,99366.22
2022-07-28T16:01:52.192Z,99361.44
2022-07-28T16:04:19.240Z,99365.31
2022-07-28T16:07:04.694Z,99373.38
2022-07-28T16:09:46.448Z,99366.81
2022-07-28T16:12:14.609Z,99341.41
2022-07-28T16:14:42.345Z,99347.53
2022-07-28T16:17:09.860Z,99359.66
2022-07-28T16:19:48.401Z,99322.88
2022-07-28T16:22:17.169Z,99353.56
2022-07-28T16:24:44.044Z,99356.44
2022-07-28T16:27:10.798Z,99330.72
2022-07-28T16:29:38.035Z,99320.91
2022-07-28T16:32:05.400Z,99332.66
2022-07-28T16:34:32.360Z,99341.38
2022-07-28T16:36:59.016Z,99315.97
2022-07-28T16:39:25.804Z,99327.38
2022-07-28T16:41:53.123Z,99331.25
2022-07-28T16:44:20.423Z,99308.00
2022-07-28T16:46:47.557Z,99289.72
2022-07-28T16:49:15.956Z,99316.66
2022-07-28T16:51:42.853Z,99313.50
2022-07-28T16:54:09.635Z,99293.72
2022-07-28T16:56:36.367Z,99305.88
2022-07-28T16:59:03.493Z,99311.28
2022-07-28T17:01:30.185Z,99318.19
2022-07-28T17:03:56.892Z,99308.66
2022-07-28T17:06:23.544Z,99311.22
2022-07-28T17:08:50.350Z,99321.13
2022-07-28T17:11:17.300Z,99326.91
2022-07-28T17:13:45.578Z,99314.53
2022-07-28T17:16:13.411Z,99307.16
2022-07-28T17:18:42.494Z,99293.03
2022-07-28T17:21:09.165Z,99300.25
2022-07-28T17:23:39.299Z,99333.56
2022-07-28T17:28:54.032Z,99329.94
2022-07-28T17:31:21.163Z,99306.44
2022-07-28T17:33:47.930Z,99317.41
2022-07-28T17:36:17.620Z,99318.53
2022-07-28T17:38:44.401Z,99329.44
2022-07-28T17:41:11.185Z,99330.47
2022-07-28T17:43:42.303Z,99332.03
2022-07-28T17:46:11.939Z,99335.41
2022-07-28T17:48:39.856Z,99331.84
2022-07-28T17:51:06.730Z,99333.88
2022-07-28T17:53:33.678Z,99331.38
2022-07-28T17:56:06.998Z,99324.41
2022-07-28T17:58:36.218Z,99320.94
2022-07-28T18:01:10.629Z,99353.31
2022-07-28T18:03:59.189Z,99354.25
2022-07-28T18:06:40.339Z,99338.34
2022-07-28T18:09:13.412Z,99336.16
2022-07-28T18:11:56.835Z,99364.81
2022-07-28T18:14:27.135Z,99360.50
2022-07-28T18:16:54.889Z,99356.63
2022-07-28T18:19:23.361Z,99369.81
2022-07-28T18:22:02.712Z,99353.34
2022-07-28T18:24:29.422Z,99374.59
2022-07-28T18:26:56.088Z,99364.03
2022-07-28T18:29:23.032Z,99367.72
2022-07-28T18:31:57.749Z,99366.81
2022-07-28T18:34:26.663Z,99336.53
2022-07-28T18:36:56.709Z,99348.94
2022-07-28T18:39:30.939Z,99330.50
2022-07-28T18:41:57.748Z,99354.19
2022-07-28T18:44:24.616Z,99354.91
2022-07-28T18:46:51.662Z,99348.97
2022-07-28T18:49:19.936Z,99343.84
2022-07-28T18:51:49.346Z,99363.19
2022-07-28T18:54:21.538Z,99374.78
2022-07-28T18:57:11.955Z,99341.28
2022-07-28T18:59:43.866Z,99367.09
2022-07-28T19:02:13.922Z,99379.03
2022-07-28T19:04:42.064Z,99335.03
2022-07-28T19:07:08.960Z,99300.16
2022-07-28T19:09:38.904Z,99374.13
2022-07-28T19:12:09.368Z,99378.38
2022-07-28T19:14:36.322Z,99352.84
2022-07-28T19:17:05.544Z,99381.34
2022-07-28T19:19:38.708Z,99388.88
2022-07-28T19:22:07.337Z,99390.16
2022-07-28T19:24:35.190Z,99386.03
2022-07-28T19:27:05.181Z,99381.59
2022-07-28T19:29:32.606Z,99382.97
2022-07-28T19:32:01.624Z,99391.00
2022-07-28T19:34:28.409Z,99328.06
2022-07-28T19:36:56.231Z,99388.50
2022-07-28T19:39:23.506Z,99393.91
2022-07-28T19:41:50.296Z,99396.63
2022-07-28T19:44:17.522Z,99406.09
2022-07-28T19:46:45.385Z,99398.72
2022-07-28T19:49:12.747Z,99421.91
2022-07-28T19:51:44.188Z,99365.47
2022-07-28T19:54:13.184Z,99419.72
2022-07-28T19:56:42.246Z,99411.13
2022-07-28T19:59:09.634Z,99447.56
2022-07-28T20:01:36.544Z,99427.16
2022-07-28T20:04:12.935Z,99371.94
2022-07-28T20:06:39.772Z,99451.13
2022-07-28T20:09:06.626Z,99464.16
2022-07-28T20:11:33.773Z,99324.16
2022-07-28T20:14:01.230Z,99411.66
2022-07-28T20:16:28.223Z,99452.59
2022-07-28T20:18:56.866Z,99459.09
2022-07-28T20:21:24.878Z,99455.88
2022-07-28T20:23:56.923Z,99466.25
2022-07-28T20:26:26.664Z,99465.09
2022-07-28T20:28:55.445Z,99469.19
2022-07-28T20:31:22.279Z,99462.44
2022-07-28T20:33:50.225Z,99471.09
2022-07-28T20:36:16.980Z,99470.63
2022-07-28T20:38:45.169Z,99475.00
2022-07-28T20:41:12.325Z,99473.16
2022-07-28T20:43:41.518Z,99461.59
2022-07-28T20:46:08.450Z,99485.16
2022-07-28T20:48:35.761Z,99406.81
2022-07-28T20:51:02.533Z,99481.22
2022-07-28T20:53:29.221Z,99501.00
2022-07-28T20:55:56.056Z,99503.19
2022-07-28T20:58:22.759Z,99507.28
2022-07-28T21:00:50.847Z,99508.16
2022-07-28T21:03:17.912Z,99507.03
2022-07-28T21:05:44.617Z,99498.72
2022-07-28T21:08:16.186Z,99496.56
2022-07-28T21:10:44.228Z,99485.75
2022-07-28T21:13:11.311Z,99506.25
2022-07-28T21:15:38.119Z,99501.63
2022-07-28T21:18:05.019Z,99480.56
2022-07-28T21:20:31.854Z,99506.94
2022-07-28T21:22:58.601Z,99514.28
2022-07-28T21:25:25.301Z,99523.56
2022-07-28T21:28:10.950Z,99511.66
2022-07-28T21:30:38.063Z,99538.13
2022-07-28T21:33:05.391Z,99511.75
2022-07-28T21:35:32.161Z,99558.53
2022-07-28T21:37:59.430Z,99574.47
2022-07-28T21:40:26.323Z,99569.84
2022-07-28T21:42:53.076Z,99553.84
2022-07-28T21:45:19.955Z,99576.28
2022-07-28T21:47:46.777Z,99557.66
2022-07-28T21:50:14.058Z,99571.84
2022-07-28T21:52:40.822Z,99583.31
2022-07-28T21:55:09.347Z,99585.47
2022-07-28T21:57:36.326Z,99574.16
2022-07-28T22:00:06.612Z,99579.31
2022-07-28T22:02:33.517Z,99547.22
2022-07-28T22:05:01.016Z,99549.41
2022-07-28T22:07:28.094Z,99577.25
2022-07-28T22:09:54.853Z,99564.59
2022-07-28T22:12:21.631Z,99581.09
2022-07-28T22:14:48.328Z,99576.56
2022-07-28T22:17:14.969Z,99591.16
2022-07-28T22:19:41.786Z,99594.16
2022-07-28T22:22:08.605Z,99595.25
2022-07-28T22:24:35.332Z,99604.41
2022-07-28T22:27:34.579Z,99589.56
2022-07-28T22:30:02.835Z,99597.69
2022-07-28T22:32:29.603Z,99595.56
2022-07-28T22:34:58.146Z,99577.16
2022-07-28T22:37:24.868Z,99586.31
2022-07-28T22:39:51.728Z,99594.50
2022-07-28T22:42:18.418Z,99595.84
2022-07-28T22:45:06.406Z,99577.50
2022-07-28T22:47:33.051Z,99598.31
2022-07-28T22:49:59.702Z,99599.72
2022-07-28T22:52:27.992Z,99591.34
2022-07-28T22:54:55.150Z,99582.66
2022-07-28T22:57:22.082Z,99583.19
2022-07-28T22:59:51.068Z,99587.00
2022-07-28T23:02:18.662Z,99592.41
2022-07-28T23:04:51.135Z,99607.81
2022-07-28T23:07:18.414Z,99576.47
2022-07-28T23:09:45.128Z,99597.84
2022-07-28T23:12:11.839Z,99602.41
2022-07-28T23:14:38.582Z,99609.72
2022-07-28T23:17:05.311Z,99609.75
2022-07-28T23:19:31.991Z,99610.25
2022-07-28T23:21:58.708Z,99608.63
2022-07-28T23:24:25.481Z,99610.81
2022-07-28T23:26:52.139Z,99612.97
2022-07-28T23:29:18.790Z,99586.47
2022-07-28T23:31:45.481Z,99607.31
2022-07-28T23:34:12.219Z,99608.13
2022-07-28T23:36:38.904Z,99597.03
2022-07-28T23:39:05.554Z,99611.84
2022-07-28T23:41:32.282Z,99616.13
2022-07-28T23:43:59.214Z,99602.09
2022-07-28T23:46:25.907Z,99610.25
2022-07-28T23:48:52.754Z,99610.25
2022-07-28T23:51:21.049Z,99603.75
2022-07-28T23:53:49.888Z,99586.41
2022-07-28T23:56:19.676Z,99613.44
2022-07-28T23:58:46.285Z,99603.16
